sensor_id;sensor_type;location;lat;lon;timestamp;temperature;humidity
33715;DHT22;20043;50.998;4.754;2022-09-13T00:00:41;19.60;99.90
33715;DHT22;20043;50.998;4.754;2022-09-13T00:03:08;19.60;99.90
33715;DHT22;20043;50.998;4.754;2022-09-13T00:05:35;19.60;99.90
33715;DHT22;20043;50.998;4.754;2022-09-13T00:08:01;19.60;99.90
33715;DHT22;20043;50.998;4.754;2022-09-13T00:10:27;19.50;99.90
33715;DHT22;20043;50.998;4.754;2022-09-13T00:12:53;19.40;99.90
33715;DHT22;20043;50.998;4.754;2022-09-13T00:15:19;19.40;99.90
33715;DHT22;20043;50.998;4.754;2022-09-13T00:17:45;19.50;99.90
33715;DHT22;20043;50.998;4.754;2022-09-13T00:20:11;19.50;99.90
33715;DHT22;20043;50.998;4.754;2022-09-13T00:22:37;19.40;99.90
33715;DHT22;20043;50.998;4.754;2022-09-13T00:25:04;19.50;99.90
33715;DHT22;20043;50.998;4.754;2022-09-13T00:27:32;19.40;99.90
33715;DHT22;20043;50.998;4.754;2022-09-13T00:29:57;19.40;99.90
33715;DHT22;20043;50.998;4.754;2022-09-13T00:32:23;19.30;99.90
33715;DHT22;20043;50.998;4.754;2022-09-13T00:34:49;19.30;99.90
33715;DHT22;20043;50.998;4.754;2022-09-13T00:37:14;19.20;99.90
33715;DHT22;20043;50.998;4.754;2022-09-13T00:39:40;19.20;99.90
33715;DHT22;20043;50.998;4.754;2022-09-13T00:42:12;19.20;99.90
33715;DHT22;20043;50.998;4.754;2022-09-13T00:47:14;19.30;99.90
33715;DHT22;20043;50.998;4.754;2022-09-13T00:49:42;19.30;99.90
33715;DHT22;20043;50.998;4.754;2022-09-13T00:52:13;19.30;99.90
33715;DHT22;20043;50.998;4.754;2022-09-13T00:54:50;19.30;99.90
33715;DHT22;20043;50.998;4.754;2022-09-13T00:57:19;19.30;99.90
33715;DHT22;20043;50.998;4.754;2022-09-13T00:59:55;19.30;99.90
33715;DHT22;20043;50.998;4.754;2022-09-13T01:02:23;19.30;99.90
33715;DHT22;20043;50.998;4.754;2022-09-13T01:04:49;19.40;99.90
33715;DHT22;20043;50.998;4.754;2022-09-13T01:07:15;19.50;99.90
33715;DHT22;20043;50.998;4.754;2022-09-13T01:09:44;19.50;99.90
33715;DHT22;20043;50.998;4.754;2022-09-13T01:12:36;19.50;99.90
33715;DHT22;20043;50.998;4.754;2022-09-13T01:15:05;19.60;99.90
33715;DHT22;20043;50.998;4.754;2022-09-13T01:17:32;19.60;99.90
33715;DHT22;20043;50.998;4.754;2022-09-13T01:19:59;19.60;99.90
33715;DHT22;20043;50.998;4.754;2022-09-13T01:30:23;19.50;99.90
33715;DHT22;20043;50.998;4.754;2022-09-13T01:33:16;19.50;99.90
33715;DHT22;20043;50.998;4.754;2022-09-13T01:41:24;19.30;99.90
33715;DHT22;20043;50.998;4.754;2022-09-13T01:49:58;19.50;99.90
33715;DHT22;20043;50.998;4.754;2022-09-13T02:01:13;19.80;99.90
33715;DHT22;20043;50.998;4.754;2022-09-13T02:06:14;19.80;99.90
33715;DHT22;20043;50.998;4.754;2022-09-13T02:08:45;19.70;99.90
33715;DHT22;20043;50.998;4.754;2022-09-13T02:11:14;19.70;99.90
33715;DHT22;20043;50.998;4.754;2022-09-13T02:16:29;19.80;99.90
33715;DHT22;20043;50.998;4.754;2022-09-13T02:19:09;19.80;99.90
33715;DHT22;20043;50.998;4.754;2022-09-13T02:21:39;19.80;99.90
33715;DHT22;20043;50.998;4.754;2022-09-13T02:24:14;19.70;99.90
33715;DHT22;20043;50.998;4.754;2022-09-13T02:26:42;19.70;99.90
33715;DHT22;20043;50.998;4.754;2022-09-13T02:29:13;19.80;99.90
33715;DHT22;20043;50.998;4.754;2022-09-13T02:31:54;19.70;99.90
33715;DHT22;20043;50.998;4.754;2022-09-13T02:34:29;19.70;99.90
33715;DHT22;20043;50.998;4.754;2022-09-13T02:36:56;19.70;99.90
33715;DHT22;20043;50.998;4.754;2022-09-13T02:39:24;19.70;99.90
33715;DHT22;20043;50.998;4.754;2022-09-13T02:44:30;19.70;99.90
33715;DHT22;20043;50.998;4.754;2022-09-13T02:47:09;19.60;99.90
33715;DHT22;20043;50.998;4.754;2022-09-13T02:49:49;19.60;99.90
33715;DHT22;20043;50.998;4.754;2022-09-13T02:52:42;19.60;99.90
33715;DHT22;20043;50.998;4.754;2022-09-13T02:58:10;19.60;99.90
33715;DHT22;20043;50.998;4.754;2022-09-13T03:00:36;19.50;99.90
33715;DHT22;20043;50.998;4.754;2022-09-13T03:03:06;19.50;99.90
33715;DHT22;20043;50.998;4.754;2022-09-13T03:05:32;19.60;99.90
33715;DHT22;20043;50.998;4.754;2022-09-13T03:07:58;19.50;99.90
33715;DHT22;20043;50.998;4.754;2022-09-13T03:10:29;19.50;99.90
33715;DHT22;20043;50.998;4.754;2022-09-13T03:13:23;19.50;99.90
33715;DHT22;20043;50.998;4.754;2022-09-13T03:18:44;19.50;99.90
33715;DHT22;20043;50.998;4.754;2022-09-13T03:30:02;19.30;99.90
33715;DHT22;20043;50.998;4.754;2022-09-13T03:38:16;19.30;99.90
33715;DHT22;20043;50.998;4.754;2022-09-13T03:40:47;19.20;99.90
33715;DHT22;20043;50.998;4.754;2022-09-13T03:45:54;19.00;99.90
33715;DHT22;20043;50.998;4.754;2022-09-13T03:48:22;19.00;99.90
33715;DHT22;20043;50.998;4.754;2022-09-13T03:50:48;19.00;99.90
33715;DHT22;20043;50.998;4.754;2022-09-13T03:53:22;19.00;99.90
33715;DHT22;20043;50.998;4.754;2022-09-13T03:55:48;19.10;99.90
33715;DHT22;20043;50.998;4.754;2022-09-13T03:58:16;19.10;99.90
33715;DHT22;20043;50.998;4.754;2022-09-13T04:00:42;19.10;99.90
33715;DHT22;20043;50.998;4.754;2022-09-13T04:03:11;19.10;99.90
33715;DHT22;20043;50.998;4.754;2022-09-13T04:05:37;19.10;99.90
33715;DHT22;20043;50.998;4.754;2022-09-13T04:08:04;19.20;99.90
33715;DHT22;20043;50.998;4.754;2022-09-13T04:10:31;19.20;99.90
33715;DHT22;20043;50.998;4.754;2022-09-13T04:12:57;19.20;99.90
33715;DHT22;20043;50.998;4.754;2022-09-13T04:15:25;19.20;99.90
33715;DHT22;20043;50.998;4.754;2022-09-13T04:17:51;19.20;99.90
33715;DHT22;20043;50.998;4.754;2022-09-13T04:20:17;19.10;99.90
33715;DHT22;20043;50.998;4.754;2022-09-13T04:22:42;19.20;99.90
33715;DHT22;20043;50.998;4.754;2022-09-13T04:25:08;19.20;99.90
33715;DHT22;20043;50.998;4.754;2022-09-13T04:27:34;19.20;99.90
33715;DHT22;20043;50.998;4.754;2022-09-13T04:30:03;19.30;99.90
33715;DHT22;20043;50.998;4.754;2022-09-13T04:32:28;19.30;99.90
33715;DHT22;20043;50.998;4.754;2022-09-13T04:34:54;19.30;99.90
33715;DHT22;20043;50.998;4.754;2022-09-13T04:37:20;19.30;99.90
33715;DHT22;20043;50.998;4.754;2022-09-13T04:39:45;19.30;99.90
33715;DHT22;20043;50.998;4.754;2022-09-13T04:42:11;19.30;99.90
33715;DHT22;20043;50.998;4.754;2022-09-13T04:44:37;19.30;99.90
33715;DHT22;20043;50.998;4.754;2022-09-13T04:47:03;19.30;99.90
33715;DHT22;20043;50.998;4.754;2022-09-13T04:49:30;19.30;99.90
33715;DHT22;20043;50.998;4.754;2022-09-13T04:51:55;19.40;99.90
33715;DHT22;20043;50.998;4.754;2022-09-13T04:54:21;19.40;99.90
33715;DHT22;20043;50.998;4.754;2022-09-13T04:56:47;19.40;99.90
33715;DHT22;20043;50.998;4.754;2022-09-13T04:59:13;19.30;99.90
33715;DHT22;20043;50.998;4.754;2022-09-13T05:01:39;19.20;99.90
33715;DHT22;20043;50.998;4.754;2022-09-13T05:04:06;19.20;99.90
33715;DHT22;20043;50.998;4.754;2022-09-13T05:06:33;19.30;99.90
33715;DHT22;20043;50.998;4.754;2022-09-13T05:08:58;19.30;99.90
33715;DHT22;20043;50.998;4.754;2022-09-13T05:11:26;19.20;99.90
33715;DHT22;20043;50.998;4.754;2022-09-13T05:13:54;19.20;99.90
33715;DHT22;20043;50.998;4.754;2022-09-13T05:16:21;19.30;99.90
33715;DHT22;20043;50.998;4.754;2022-09-13T05:18:47;19.40;99.90
33715;DHT22;20043;50.998;4.754;2022-09-13T05:21:13;19.40;99.90
33715;DHT22;20043;50.998;4.754;2022-09-13T05:23:38;19.40;99.90
33715;DHT22;20043;50.998;4.754;2022-09-13T05:26:05;19.50;99.90
33715;DHT22;20043;50.998;4.754;2022-09-13T05:28:33;19.50;99.90
33715;DHT22;20043;50.998;4.754;2022-09-13T05:31:07;19.50;99.90
33715;DHT22;20043;50.998;4.754;2022-09-13T05:33:36;19.50;99.90
33715;DHT22;20043;50.998;4.754;2022-09-13T05:36:03;19.50;99.90
33715;DHT22;20043;50.998;4.754;2022-09-13T05:38:28;19.30;99.90
33715;DHT22;20043;50.998;4.754;2022-09-13T05:40:58;19.40;99.90
33715;DHT22;20043;50.998;4.754;2022-09-13T05:43:26;19.50;99.90
33715;DHT22;20043;50.998;4.754;2022-09-13T05:46:06;19.40;99.90
33715;DHT22;20043;50.998;4.754;2022-09-13T05:48:33;19.50;99.90
33715;DHT22;20043;50.998;4.754;2022-09-13T05:51:11;19.50;99.90
33715;DHT22;20043;50.998;4.754;2022-09-13T05:53:37;19.50;99.90
33715;DHT22;20043;50.998;4.754;2022-09-13T05:56:05;19.50;99.90
33715;DHT22;20043;50.998;4.754;2022-09-13T05:58:31;19.40;99.90
33715;DHT22;20043;50.998;4.754;2022-09-13T06:00:58;19.50;99.90
33715;DHT22;20043;50.998;4.754;2022-09-13T06:03:24;19.50;99.90
33715;DHT22;20043;50.998;4.754;2022-09-13T06:05:54;19.50;99.90
33715;DHT22;20043;50.998;4.754;2022-09-13T06:08:19;19.50;99.90
33715;DHT22;20043;50.998;4.754;2022-09-13T06:10:53;19.50;99.90
33715;DHT22;20043;50.998;4.754;2022-09-13T06:13:19;19.40;99.90
33715;DHT22;20043;50.998;4.754;2022-09-13T06:15:45;19.20;99.90
33715;DHT22;20043;50.998;4.754;2022-09-13T06:18:10;19.30;99.90
33715;DHT22;20043;50.998;4.754;2022-09-13T06:20:36;19.30;99.90
33715;DHT22;20043;50.998;4.754;2022-09-13T06:23:01;19.40;99.90
33715;DHT22;20043;50.998;4.754;2022-09-13T06:25:27;19.50;99.90
33715;DHT22;20043;50.998;4.754;2022-09-13T06:27:52;19.50;99.90
33715;DHT22;20043;50.998;4.754;2022-09-13T06:30:18;19.70;99.90
33715;DHT22;20043;50.998;4.754;2022-09-13T06:32:44;19.70;99.90
33715;DHT22;20043;50.998;4.754;2022-09-13T06:35:09;19.80;99.90
33715;DHT22;20043;50.998;4.754;2022-09-13T06:37:35;19.80;99.90
33715;DHT22;20043;50.998;4.754;2022-09-13T06:40:01;19.90;99.90
33715;DHT22;20043;50.998;4.754;2022-09-13T06:42:29;19.80;99.90
33715;DHT22;20043;50.998;4.754;2022-09-13T06:44:54;19.90;99.90
33715;DHT22;20043;50.998;4.754;2022-09-13T06:47:20;20.00;99.90
33715;DHT22;20043;50.998;4.754;2022-09-13T06:49:46;19.90;99.90
33715;DHT22;20043;50.998;4.754;2022-09-13T06:52:11;19.90;99.90
33715;DHT22;20043;50.998;4.754;2022-09-13T06:54:37;19.80;99.90
33715;DHT22;20043;50.998;4.754;2022-09-13T06:57:03;19.90;99.90
33715;DHT22;20043;50.998;4.754;2022-09-13T06:59:29;20.00;99.90
33715;DHT22;20043;50.998;4.754;2022-09-13T07:01:55;20.10;99.90
33715;DHT22;20043;50.998;4.754;2022-09-13T07:04:21;20.10;99.90
33715;DHT22;20043;50.998;4.754;2022-09-13T07:06:48;20.20;99.90
33715;DHT22;20043;50.998;4.754;2022-09-13T07:09:19;20.30;99.90
33715;DHT22;20043;50.998;4.754;2022-09-13T07:11:47;20.50;99.90
33715;DHT22;20043;50.998;4.754;2022-09-13T07:14:21;20.70;99.90
33715;DHT22;20043;50.998;4.754;2022-09-13T07:16:47;20.90;99.90
33715;DHT22;20043;50.998;4.754;2022-09-13T07:19:15;21.00;99.90
33715;DHT22;20043;50.998;4.754;2022-09-13T07:21:42;21.10;99.90
33715;DHT22;20043;50.998;4.754;2022-09-13T07:24:08;21.10;99.90
33715;DHT22;20043;50.998;4.754;2022-09-13T07:26:34;21.30;99.90
33715;DHT22;20043;50.998;4.754;2022-09-13T07:29:02;21.40;99.90
33715;DHT22;20043;50.998;4.754;2022-09-13T07:31:31;21.60;99.90
33715;DHT22;20043;50.998;4.754;2022-09-13T07:33:59;21.70;99.90
33715;DHT22;20043;50.998;4.754;2022-09-13T07:36:27;21.70;99.90
33715;DHT22;20043;50.998;4.754;2022-09-13T07:38:53;21.80;99.90
33715;DHT22;20043;50.998;4.754;2022-09-13T07:41:22;22.00;99.90
33715;DHT22;20043;50.998;4.754;2022-09-13T07:43:49;22.00;99.90
33715;DHT22;20043;50.998;4.754;2022-09-13T07:46:18;22.20;99.90
33715;DHT22;20043;50.998;4.754;2022-09-13T07:48:45;22.40;99.90
33715;DHT22;20043;50.998;4.754;2022-09-13T07:51:16;22.50;99.90
33715;DHT22;20043;50.998;4.754;2022-09-13T07:53:44;22.40;99.90
33715;DHT22;20043;50.998;4.754;2022-09-13T07:56:12;22.40;99.90
33715;DHT22;20043;50.998;4.754;2022-09-13T07:58:40;22.40;99.90
33715;DHT22;20043;50.998;4.754;2022-09-13T08:01:12;22.60;99.90
33715;DHT22;20043;50.998;4.754;2022-09-13T08:03:39;22.70;99.90
33715;DHT22;20043;50.998;4.754;2022-09-13T08:06:05;22.70;99.90
33715;DHT22;20043;50.998;4.754;2022-09-13T08:08:32;22.80;99.90
33715;DHT22;20043;50.998;4.754;2022-09-13T08:10:59;22.80;99.90
33715;DHT22;20043;50.998;4.754;2022-09-13T08:13:25;22.90;99.90
33715;DHT22;20043;50.998;4.754;2022-09-13T08:15:51;23.10;99.90
33715;DHT22;20043;50.998;4.754;2022-09-13T08:18:18;23.30;99.90
33715;DHT22;20043;50.998;4.754;2022-09-13T08:20:44;23.30;99.90
33715;DHT22;20043;50.998;4.754;2022-09-13T08:23:10;23.50;99.90
33715;DHT22;20043;50.998;4.754;2022-09-13T08:25:37;23.80;99.90
33715;DHT22;20043;50.998;4.754;2022-09-13T08:28:14;24.10;99.90
33715;DHT22;20043;50.998;4.754;2022-09-13T08:30:40;24.20;99.90
33715;DHT22;20043;50.998;4.754;2022-09-13T08:33:08;24.50;99.90
33715;DHT22;20043;50.998;4.754;2022-09-13T08:35:34;24.70;99.90
33715;DHT22;20043;50.998;4.754;2022-09-13T08:38:00;24.90;99.90
33715;DHT22;20043;50.998;4.754;2022-09-13T08:40:31;24.90;99.90
33715;DHT22;20043;50.998;4.754;2022-09-13T08:45:27;24.90;99.90
33715;DHT22;20043;50.998;4.754;2022-09-13T08:47:57;25.10;99.90
33715;DHT22;20043;50.998;4.754;2022-09-13T08:50:29;25.10;99.90
33715;DHT22;20043;50.998;4.754;2022-09-13T08:53:19;25.00;99.90
33715;DHT22;20043;50.998;4.754;2022-09-13T09:06:22;25.30;99.90
33715;DHT22;20043;50.998;4.754;2022-09-13T09:09:11;25.40;99.90
33715;DHT22;20043;50.998;4.754;2022-09-13T09:11:54;25.60;99.90
33715;DHT22;20043;50.998;4.754;2022-09-13T09:17:02;25.80;99.90
33715;DHT22;20043;50.998;4.754;2022-09-13T09:19:53;25.50;99.90
33715;DHT22;20043;50.998;4.754;2022-09-13T09:22:21;25.40;99.90
33715;DHT22;20043;50.998;4.754;2022-09-13T09:24:51;25.50;99.90
33715;DHT22;20043;50.998;4.754;2022-09-13T09:27:19;25.30;99.90
33715;DHT22;20043;50.998;4.754;2022-09-13T09:29:48;25.20;99.90
33715;DHT22;20043;50.998;4.754;2022-09-13T09:32:37;25.40;99.90
33715;DHT22;20043;50.998;4.754;2022-09-13T09:40:46;25.90;99.90
33715;DHT22;20043;50.998;4.754;2022-09-13T09:43:32;25.70;99.90
33715;DHT22;20043;50.998;4.754;2022-09-13T09:46:02;25.70;99.90
33715;DHT22;20043;50.998;4.754;2022-09-13T09:48:33;25.30;99.90
33715;DHT22;20043;50.998;4.754;2022-09-13T09:51:04;25.30;99.90
33715;DHT22;20043;50.998;4.754;2022-09-13T09:53:33;25.60;99.90
33715;DHT22;20043;50.998;4.754;2022-09-13T09:56:25;25.90;99.90
33715;DHT22;20043;50.998;4.754;2022-09-13T09:58:52;26.20;99.90
33715;DHT22;20043;50.998;4.754;2022-09-13T10:01:22;25.70;99.90
33715;DHT22;20043;50.998;4.754;2022-09-13T10:04:04;25.40;99.90
33715;DHT22;20043;50.998;4.754;2022-09-13T10:06:34;24.90;99.90
33715;DHT22;20043;50.998;4.754;2022-09-13T10:09:04;24.70;99.90
33715;DHT22;20043;50.998;4.754;2022-09-13T10:11:42;24.90;99.90
33715;DHT22;20043;50.998;4.754;2022-09-13T10:14:44;24.90;99.90
33715;DHT22;20043;50.998;4.754;2022-09-13T10:17:29;25.10;99.90
33715;DHT22;20043;50.998;4.754;2022-09-13T10:19:57;24.90;99.90
33715;DHT22;20043;50.998;4.754;2022-09-13T10:22:24;24.90;99.90
33715;DHT22;20043;50.998;4.754;2022-09-13T10:24:50;25.10;99.90
33715;DHT22;20043;50.998;4.754;2022-09-13T10:27:28;25.10;99.90
33715;DHT22;20043;50.998;4.754;2022-09-13T10:29:57;24.80;99.90
33715;DHT22;20043;50.998;4.754;2022-09-13T10:32:27;24.90;99.90
33715;DHT22;20043;50.998;4.754;2022-09-13T10:34:55;25.20;99.90
33715;DHT22;20043;50.998;4.754;2022-09-13T10:37:27;25.20;99.90
33715;DHT22;20043;50.998;4.754;2022-09-13T10:40:06;25.10;99.90
33715;DHT22;20043;50.998;4.754;2022-09-13T10:42:33;25.10;99.90
33715;DHT22;20043;50.998;4.754;2022-09-13T10:45:05;24.90;99.90
33715;DHT22;20043;50.998;4.754;2022-09-13T10:50:58;25.10;99.90
33715;DHT22;20043;50.998;4.754;2022-09-13T10:53:42;25.00;99.90
33715;DHT22;20043;50.998;4.754;2022-09-13T10:56:26;25.30;99.90
33715;DHT22;20043;50.998;4.754;2022-09-13T11:04:55;25.80;99.90
33715;DHT22;20043;50.998;4.754;2022-09-13T11:10:23;26.10;99.90
33715;DHT22;20043;50.998;4.754;2022-09-13T11:29:46;27.30;99.90
33715;DHT22;20043;50.998;4.754;2022-09-13T11:32:28;27.00;99.90
33715;DHT22;20043;50.998;4.754;2022-09-13T11:40:39;27.50;99.90
33715;DHT22;20043;50.998;4.754;2022-09-13T11:51:33;27.80;99.90
33715;DHT22;20043;50.998;4.754;2022-09-13T11:54:07;27.90;99.90
33715;DHT22;20043;50.998;4.754;2022-09-13T11:56:40;27.50;99.90
33715;DHT22;20043;50.998;4.754;2022-09-13T12:01:59;27.10;99.90
33715;DHT22;20043;50.998;4.754;2022-09-13T12:04:36;27.00;99.90
33715;DHT22;20043;50.998;4.754;2022-09-13T12:07:11;26.80;99.90
33715;DHT22;20043;50.998;4.754;2022-09-13T12:09:46;26.80;99.90
33715;DHT22;20043;50.998;4.754;2022-09-13T12:12:16;26.80;99.90
33715;DHT22;20043;50.998;4.754;2022-09-13T12:17:51;27.50;99.90
33715;DHT22;20043;50.998;4.754;2022-09-13T12:22:54;27.80;99.90
33715;DHT22;20043;50.998;4.754;2022-09-13T12:25:24;27.50;99.90
33715;DHT22;20043;50.998;4.754;2022-09-13T12:30:24;27.60;99.90
33715;DHT22;20043;50.998;4.754;2022-09-13T12:32:51;27.60;99.90
33715;DHT22;20043;50.998;4.754;2022-09-13T12:41:19;27.10;99.90
33715;DHT22;20043;50.998;4.754;2022-09-13T12:58:09;27.00;99.90
33715;DHT22;20043;50.998;4.754;2022-09-13T13:01:16;27.20;99.90
33715;DHT22;20043;50.998;4.754;2022-09-13T13:03:48;27.40;99.90
33715;DHT22;20043;50.998;4.754;2022-09-13T13:08:56;27.50;99.90
33715;DHT22;20043;50.998;4.754;2022-09-13T13:11:24;27.60;99.90
33715;DHT22;20043;50.998;4.754;2022-09-13T13:13:59;27.80;99.90
33715;DHT22;20043;50.998;4.754;2022-09-13T13:16:35;27.80;99.90
33715;DHT22;20043;50.998;4.754;2022-09-13T13:19:30;27.60;99.90
33715;DHT22;20043;50.998;4.754;2022-09-13T13:27:54;27.70;99.90
33715;DHT22;20043;50.998;4.754;2022-09-13T13:30:49;27.40;99.90
33715;DHT22;20043;50.998;4.754;2022-09-13T13:33:21;26.80;99.90
33715;DHT22;20043;50.998;4.754;2022-09-13T13:35:47;26.90;99.90
33715;DHT22;20043;50.998;4.754;2022-09-13T13:43:59;27.00;99.90
33715;DHT22;20043;50.998;4.754;2022-09-13T13:46:31;26.90;99.90
33715;DHT22;20043;50.998;4.754;2022-09-13T13:57:28;26.80;99.90
33715;DHT22;20043;50.998;4.754;2022-09-13T14:00:20;26.50;99.90
33715;DHT22;20043;50.998;4.754;2022-09-13T14:02:52;26.20;99.90
33715;DHT22;20043;50.998;4.754;2022-09-13T14:08:31;26.00;99.90
33715;DHT22;20043;50.998;4.754;2022-09-13T14:24:51;26.00;99.90
33715;DHT22;20043;50.998;4.754;2022-09-13T14:27:25;26.00;99.90
33715;DHT22;20043;50.998;4.754;2022-09-13T14:30:04;26.10;99.90
33715;DHT22;20043;50.998;4.754;2022-09-13T14:32:43;26.00;99.90
33715;DHT22;20043;50.998;4.754;2022-09-13T14:35:47;26.00;99.90
33715;DHT22;20043;50.998;4.754;2022-09-13T14:40:52;25.90;99.90
33715;DHT22;20043;50.998;4.754;2022-09-13T14:43:26;25.80;99.90
33715;DHT22;20043;50.998;4.754;2022-09-13T14:46:26;25.70;99.90
33715;DHT22;20043;50.998;4.754;2022-09-13T14:49:05;25.50;99.90
33715;DHT22;20043;50.998;4.754;2022-09-13T14:51:43;25.50;99.90
33715;DHT22;20043;50.998;4.754;2022-09-13T14:54:17;25.50;99.90
33715;DHT22;20043;50.998;4.754;2022-09-13T14:56:49;25.40;99.90
33715;DHT22;20043;50.998;4.754;2022-09-13T14:59:28;25.40;99.90
33715;DHT22;20043;50.998;4.754;2022-09-13T15:01:54;25.30;99.90
33715;DHT22;20043;50.998;4.754;2022-09-13T15:04:22;25.40;99.90
33715;DHT22;20043;50.998;4.754;2022-09-13T15:07:06;25.30;99.90
33715;DHT22;20043;50.998;4.754;2022-09-13T15:09:32;25.20;99.90
33715;DHT22;20043;50.998;4.754;2022-09-13T15:12:00;25.20;99.90
33715;DHT22;20043;50.998;4.754;2022-09-13T15:17:09;25.10;99.90
33715;DHT22;20043;50.998;4.754;2022-09-13T15:24:42;24.90;99.90
33715;DHT22;20043;50.998;4.754;2022-09-13T15:27:23;24.80;99.90
33715;DHT22;20043;50.998;4.754;2022-09-13T15:29:55;24.60;99.90
33715;DHT22;20043;50.998;4.754;2022-09-13T15:32:24;24.40;99.90
33715;DHT22;20043;50.998;4.754;2022-09-13T15:34:56;24.00;99.90
33715;DHT22;20043;50.998;4.754;2022-09-13T15:37:30;23.60;99.90
33715;DHT22;20043;50.998;4.754;2022-09-13T15:42:40;23.50;99.90
33715;DHT22;20043;50.998;4.754;2022-09-13T15:45:09;23.80;99.90
33715;DHT22;20043;50.998;4.754;2022-09-13T15:47:34;24.20;99.90
33715;DHT22;20043;50.998;4.754;2022-09-13T15:50:01;24.30;99.90
33715;DHT22;20043;50.998;4.754;2022-09-13T15:52:27;24.20;99.90
33715;DHT22;20043;50.998;4.754;2022-09-13T15:54:52;24.00;99.90
33715;DHT22;20043;50.998;4.754;2022-09-13T15:57:28;23.80;99.90
33715;DHT22;20043;50.998;4.754;2022-09-13T15:59:54;23.70;99.90
33715;DHT22;20043;50.998;4.754;2022-09-13T16:02:23;23.70;99.90
33715;DHT22;20043;50.998;4.754;2022-09-13T16:04:50;23.70;99.90
33715;DHT22;20043;50.998;4.754;2022-09-13T16:07:16;23.70;99.90
33715;DHT22;20043;50.998;4.754;2022-09-13T16:09:42;23.70;99.90
33715;DHT22;20043;50.998;4.754;2022-09-13T16:12:08;23.70;99.90
33715;DHT22;20043;50.998;4.754;2022-09-13T16:14:34;23.70;99.90
33715;DHT22;20043;50.998;4.754;2022-09-13T16:17:06;23.80;99.90
33715;DHT22;20043;50.998;4.754;2022-09-13T16:19:34;23.80;99.90
33715;DHT22;20043;50.998;4.754;2022-09-13T16:22:00;23.90;99.90
33715;DHT22;20043;50.998;4.754;2022-09-13T16:24:26;23.90;99.90
33715;DHT22;20043;50.998;4.754;2022-09-13T16:26:53;24.00;99.90
33715;DHT22;20043;50.998;4.754;2022-09-13T16:29:18;23.90;99.90
33715;DHT22;20043;50.998;4.754;2022-09-13T16:31:44;23.90;99.90
33715;DHT22;20043;50.998;4.754;2022-09-13T16:34:09;23.80;99.90
33715;DHT22;20043;50.998;4.754;2022-09-13T16:36:35;23.80;99.90
33715;DHT22;20043;50.998;4.754;2022-09-13T16:39:01;23.90;99.90
33715;DHT22;20043;50.998;4.754;2022-09-13T16:41:26;23.80;99.90
33715;DHT22;20043;50.998;4.754;2022-09-13T16:43:55;23.70;99.90
33715;DHT22;20043;50.998;4.754;2022-09-13T16:46:21;23.70;99.90
33715;DHT22;20043;50.998;4.754;2022-09-13T16:48:54;23.70;99.90
33715;DHT22;20043;50.998;4.754;2022-09-13T16:51:21;23.50;99.90
33715;DHT22;20043;50.998;4.754;2022-09-13T16:53:49;23.50;99.90
33715;DHT22;20043;50.998;4.754;2022-09-13T16:56:16;23.40;99.90
33715;DHT22;20043;50.998;4.754;2022-09-13T16:58:44;23.50;99.90
33715;DHT22;20043;50.998;4.754;2022-09-13T17:01:12;23.40;99.90
33715;DHT22;20043;50.998;4.754;2022-09-13T17:03:38;23.50;99.90
33715;DHT22;20043;50.998;4.754;2022-09-13T17:06:06;23.60;99.90
33715;DHT22;20043;50.998;4.754;2022-09-13T17:08:33;23.70;99.90
33715;DHT22;20043;50.998;4.754;2022-09-13T17:10:59;23.70;99.90
33715;DHT22;20043;50.998;4.754;2022-09-13T17:13:28;23.70;99.90
33715;DHT22;20043;50.998;4.754;2022-09-13T17:15:54;23.60;99.90
33715;DHT22;20043;50.998;4.754;2022-09-13T17:18:19;23.60;99.90
33715;DHT22;20043;50.998;4.754;2022-09-13T17:20:48;23.60;99.90
33715;DHT22;20043;50.998;4.754;2022-09-13T17:23:14;23.60;99.90
33715;DHT22;20043;50.998;4.754;2022-09-13T17:25:45;23.70;99.90
33715;DHT22;20043;50.998;4.754;2022-09-13T17:28:12;23.60;99.90
33715;DHT22;20043;50.998;4.754;2022-09-13T17:30:37;23.50;99.90
33715;DHT22;20043;50.998;4.754;2022-09-13T17:33:03;23.50;99.90
33715;DHT22;20043;50.998;4.754;2022-09-13T17:35:32;23.50;99.90
33715;DHT22;20043;50.998;4.754;2022-09-13T17:37:59;23.50;99.90
33715;DHT22;20043;50.998;4.754;2022-09-13T17:40:26;23.50;99.90
33715;DHT22;20043;50.998;4.754;2022-09-13T17:42:52;23.40;99.90
33715;DHT22;20043;50.998;4.754;2022-09-13T17:45:18;23.30;99.90
33715;DHT22;20043;50.998;4.754;2022-09-13T17:47:44;23.10;99.90
33715;DHT22;20043;50.998;4.754;2022-09-13T17:50:10;23.00;99.90
33715;DHT22;20043;50.998;4.754;2022-09-13T17:52:35;23.00;99.90
33715;DHT22;20043;50.998;4.754;2022-09-13T17:55:02;23.00;99.90
33715;DHT22;20043;50.998;4.754;2022-09-13T17:57:27;23.00;99.90
33715;DHT22;20043;50.998;4.754;2022-09-13T17:59:53;23.10;99.90
33715;DHT22;20043;50.998;4.754;2022-09-13T18:02:19;23.00;99.90
33715;DHT22;20043;50.998;4.754;2022-09-13T18:04:46;23.10;99.90
33715;DHT22;20043;50.998;4.754;2022-09-13T18:07:12;23.10;99.90
33715;DHT22;20043;50.998;4.754;2022-09-13T18:09:37;23.00;99.90
33715;DHT22;20043;50.998;4.754;2022-09-13T18:12:04;23.00;99.90
33715;DHT22;20043;50.998;4.754;2022-09-13T18:14:30;22.90;99.90
33715;DHT22;20043;50.998;4.754;2022-09-13T18:16:57;22.80;99.90
33715;DHT22;20043;50.998;4.754;2022-09-13T18:19:23;22.80;99.90
33715;DHT22;20043;50.998;4.754;2022-09-13T18:21:49;22.80;99.90
33715;DHT22;20043;50.998;4.754;2022-09-13T18:24:15;22.80;99.90
33715;DHT22;20043;50.998;4.754;2022-09-13T18:26:41;22.80;99.90
33715;DHT22;20043;50.998;4.754;2022-09-13T18:29:10;22.70;99.90
33715;DHT22;20043;50.998;4.754;2022-09-13T18:31:38;22.70;99.90
33715;DHT22;20043;50.998;4.754;2022-09-13T18:34:06;22.50;99.90
33715;DHT22;20043;50.998;4.754;2022-09-13T18:36:32;22.50;99.90
33715;DHT22;20043;50.998;4.754;2022-09-13T18:38:59;22.50;99.90
33715;DHT22;20043;50.998;4.754;2022-09-13T18:41:34;22.50;99.90
33715;DHT22;20043;50.998;4.754;2022-09-13T18:44:00;22.50;99.90
33715;DHT22;20043;50.998;4.754;2022-09-13T18:46:28;22.50;99.90
33715;DHT22;20043;50.998;4.754;2022-09-13T18:48:55;22.50;99.90
33715;DHT22;20043;50.998;4.754;2022-09-13T18:51:31;22.50;99.90
33715;DHT22;20043;50.998;4.754;2022-09-13T18:53:58;22.40;99.90
33715;DHT22;20043;50.998;4.754;2022-09-13T18:56:24;22.40;99.90
33715;DHT22;20043;50.998;4.754;2022-09-13T18:58:51;22.30;99.90
33715;DHT22;20043;50.998;4.754;2022-09-13T19:01:20;22.20;99.90
33715;DHT22;20043;50.998;4.754;2022-09-13T19:06:25;22.30;99.90
33715;DHT22;20043;50.998;4.754;2022-09-13T19:08:51;22.40;99.90
33715;DHT22;20043;50.998;4.754;2022-09-13T19:11:19;22.40;99.90
33715;DHT22;20043;50.998;4.754;2022-09-13T19:13:45;22.40;99.90
33715;DHT22;20043;50.998;4.754;2022-09-13T19:16:15;22.60;99.90
33715;DHT22;20043;50.998;4.754;2022-09-13T19:18:46;22.50;99.90